Al Rekayyat — V7QF3 — position and weather

sailwx.info

Track history (hours):
 
Tides and Currents Weather Stations Pressure Air Temp Water Temp Dewpoint Dewpoint Depression Visibility Wind Speed Wind Dir Waves Ship Positions

Al Rekayyat

Last reported at 2016-Apr-06 21:25 UTC. Time now 2016-May-04 11:40 UTC.
Position N 02°05' E 102°07'.
Warning: this ship's position is 27 days out of date.

Length 315 m; draft 9.8 m.

Type: Ship (hazmat cat D). MMSI: 538003347.

Date/timePositionNaut miles runAvg speedWind from/ knotsBaromVisibWave heightAir tempDewpointWater temp
2016-Apr-06 21:25N 02°05' E 102°07'1516.9
2016-Apr-06 20:33N 01°55' E 102°18'1818.1
2016-Apr-06 19:33N 01°48' E 102°34'5917.7
2016-Apr-06 16:12N 01°15' E 103°24'1014.9
2016-Apr-06 15:33N 01°12' E 103°33'9 8.9
2016-Apr-06 14:33N 01°12' E 103°42'1 0.6
2016-Apr-06 13:33N 01°12' E 103°42'0 0.0
2016-Apr-06 12:34N 01°12' E 103°42'0 0.1
2016-Apr-06 11:31N 01°12' E 103°42'0 0.0
2016-Apr-06 10:26N 01°12' E 103°42'0 0.0
2016-Apr-06 09:06N 01°12' E 103°42'0 0.1
2016-Apr-06 08:21N 01°12' E 103°42'0 0.0
2016-Apr-06 07:28N 01°12' E 103°42'0 0.1
2016-Apr-06 05:32N 01°12' E 103°42'0 0.2
2016-Apr-06 04:24N 01°12' E 103°42'0 0.3
2016-Apr-06 03:27N 01°12' E 103°42'0 0.1
2016-Apr-06 02:31N 01°12' E 103°42'2 2.4
2016-Apr-06 01:33N 01°10' E 103°43'7 7.2
2016-Apr-06 00:33N 01°11' E 103°50'7 6.9
2016-Apr-05 23:33N 01°14' E 103°56'7 6.7
2016-Apr-05 22:33N 01°16' E 104°03'  
Track history (hours):
 
Tides and Currents Weather Stations Pressure Air Temp Water Temp Dewpoint Dewpoint Depression Visibility Wind Speed Wind Dir Waves Ship Positions

Al Rekayyat

Last reported at 2016-Apr-06 21:25 UTC. Time now 2016-May-04 11:40 UTC.
Position N 02°05' E 102°07'.
Warning: this ship's position is 27 days out of date.

Length 315 m; draft 9.8 m.

Type: Ship (hazmat cat D). MMSI: 538003347.

Date/timePositionNaut miles runAvg speedWind from/ knotsBaromVisibWave heightAir tempDewpointWater temp
2016-Apr-06 21:25N 02°05' E 102°07'1516.9
2016-Apr-06 20:33N 01°55' E 102°18'1818.1
2016-Apr-06 19:33N 01°48' E 102°34'5917.7
2016-Apr-06 16:12N 01°15' E 103°24'1014.9
2016-Apr-06 15:33N 01°12' E 103°33'9 8.9
2016-Apr-06 14:33N 01°12' E 103°42'1 0.6
2016-Apr-06 13:33N 01°12' E 103°42'0 0.0
2016-Apr-06 12:34N 01°12' E 103°42'0 0.1
2016-Apr-06 11:31N 01°12' E 103°42'0 0.0
2016-Apr-06 10:26N 01°12' E 103°42'0 0.0
2016-Apr-06 09:06N 01°12' E 103°42'0 0.1
2016-Apr-06 08:21N 01°12' E 103°42'0 0.0
2016-Apr-06 07:28N 01°12' E 103°42'0 0.1
2016-Apr-06 05:32N 01°12' E 103°42'0 0.2
2016-Apr-06 04:24N 01°12' E 103°42'0 0.3
2016-Apr-06 03:27N 01°12' E 103°42'0 0.1
2016-Apr-06 02:31N 01°12' E 103°42'2 2.4
2016-Apr-06 01:33N 01°10' E 103°43'7 7.2
2016-Apr-06 00:33N 01°11' E 103°50'7 6.9
2016-Apr-05 23:33N 01°14' E 103°56'7 6.7
2016-Apr-05 22:33N 01°16' E 104°03'  

Dump ship's entire track history